Time;durP1;ratioP1;P1;durP2;ratioP2;P2;SDS_P1;SDS_P2;PMS_P1;PMS_P2;Temp;Humidity;BMP_temperature;BMP_pressure;BME280_temperature;BME280_humidity;BME280_pressure;Samples;Min_cycle;Max_cycle;Signal;HPM_P1;HPM_P2
2022/03/14 00:01:38;;;;;;;12.40;5.53;;;7.10;71.80;;;;;;10383101;28;20860;-56
2022/03/14 00:06:40;;;;;;;14.52;5.05;;;7.20;70.80;;;;;;10384032;28;20073;-56
2022/03/14 00:11:43;;;;;;;12.80;5.13;;;7.20;70.90;;;;;;10378571;28;20099;-56
2022/03/14 00:16:46;;;;;;;12.80;5.80;;;7.20;70.80;;;;;;10377602;28;20079;-56
2022/03/14 00:21:49;;;;;;;10.25;5.53;;;7.30;71.80;;;;;;10387594;28;20049;-56
2022/03/14 00:26:51;;;;;;;11.40;5.63;;;7.30;71.40;;;;;;10388348;28;20056;-56
2022/03/14 00:31:53;;;;;;;15.77;5.75;;;7.30;72.20;;;;;;10379616;28;20050;-56
2022/03/14 00:36:55;;;;;;;13.15;5.75;;;7.30;71.00;;;;;;10386849;28;20485;-56
2022/03/14 00:41:57;;;;;;;12.80;4.82;;;7.40;69.50;;;;;;10379300;28;20045;-56
2022/03/14 00:46:58;;;;;;;11.25;4.75;;;7.50;67.40;;;;;;10382931;28;20096;-57
2022/03/14 00:52:00;;;;;;;16.88;4.88;;;7.50;68.30;;;;;;10387349;28;20045;-56
2022/03/14 00:57:02;;;;;;;13.73;5.95;;;7.50;71.10;;;;;;10385685;28;20064;-56
2022/03/14 01:02:04;;;;;;;15.57;5.03;;;7.50;71.70;;;;;;10386175;28;20060;-56
2022/03/14 01:07:06;;;;;;;10.30;4.93;;;7.50;71.60;;;;;;10384131;28;20089;-56
2022/03/14 01:12:08;;;;;;;12.00;5.43;;;7.50;72.20;;;;;;10385347;28;20085;-56
2022/03/14 01:17:11;;;;;;;11.88;4.65;;;7.50;71.70;;;;;;10375262;28;20042;-57
2022/03/14 01:22:12;;;;;;;12.70;4.80;;;7.60;71.90;;;;;;10387357;28;20049;-56
2022/03/14 01:27:15;;;;;;;11.55;4.88;;;7.60;70.50;;;;;;10378240;28;20041;-56
2022/03/14 01:32:17;;;;;;;10.73;4.57;;;7.60;71.40;;;;;;10379913;28;20071;-56
2022/03/14 01:37:19;;;;;;;11.00;4.50;;;7.50;70.60;;;;;;10392098;28;20119;-57
2022/03/14 01:42:21;;;;;;;12.32;4.85;;;7.50;71.00;;;;;;10393162;28;20053;-56
2022/03/14 01:47:22;;;;;;;11.95;4.97;;;7.50;70.40;;;;;;10393788;28;20056;-56
2022/03/14 01:52:24;;;;;;;10.45;4.57;;;7.50;72.70;;;;;;10391442;28;20037;-57
2022/03/14 01:57:27;;;;;;;11.90;4.72;;;7.50;73.30;;;;;;10390979;28;20398;-57
2022/03/14 02:02:28;;;;;;;13.50;6.35;;;7.40;72.00;;;;;;10391112;28;20496;-57
2022/03/14 02:07:31;;;;;;;15.07;7.15;;;7.40;71.90;;;;;;10389210;28;20053;-56
2022/03/14 02:12:33;;;;;;;15.88;6.57;;;7.40;70.60;;;;;;10388089;28;20112;-56
2022/03/14 02:17:34;;;;;;;14.07;7.40;;;7.30;69.80;;;;;;10388638;28;20115;-56
2022/03/14 02:22:36;;;;;;;15.57;7.25;;;7.40;67.70;;;;;;10394630;28;20069;-56
2022/03/14 02:27:38;;;;;;;13.27;6.53;;;7.40;67.80;;;;;;10392907;28;20065;-56
2022/03/14 02:32:41;;;;;;;14.55;6.25;;;7.40;68.30;;;;;;10391029;28;20111;-56
2022/03/14 02:37:44;;;;;;;14.30;6.70;;;7.30;69.80;;;;;;10389069;28;20045;-57
2022/03/14 02:42:46;;;;;;;13.05;6.18;;;7.30;70.10;;;;;;10384501;28;20083;-56
2022/03/14 02:47:48;;;;;;;17.15;5.93;;;7.30;69.30;;;;;;10381654;28;20099;-56
2022/03/14 02:52:49;;;;;;;20.08;6.43;;;7.30;68.60;;;;;;10394871;28;20061;-56
2022/03/14 02:57:51;;;;;;;14.02;6.95;;;7.40;70.90;;;;;;10396569;28;20044;-57
2022/03/14 03:02:53;;;;;;;15.35;6.50;;;7.30;70.90;;;;;;10382694;28;20146;-56
2022/03/14 03:07:59;;;;;;;13.23;6.03;;;7.30;70.00;;;;;;10385164;28;20033;-56
2022/03/14 03:13:01;;;;;;;17.50;6.45;;;7.20;70.10;;;;;;10387603;28;20073;-56
2022/03/14 03:18:08;;;;;;;14.75;6.18;;;7.20;70.80;;;;;;10387491;28;20439;-59
2022/03/14 03:23:10;;;;;;;14.82;6.85;;;7.20;70.50;;;;;;10388688;28;20095;-59
2022/03/14 03:28:12;;;;;;;11.77;5.22;;;7.20;70.60;;;;;;10389997;28;20160;-56
2022/03/14 03:33:13;;;;;;;12.60;6.03;;;7.30;68.50;;;;;;10389482;28;20054;-57
2022/03/14 03:38:15;;;;;;;13.43;6.80;;;7.40;70.40;;;;;;10391151;28;20064;-57
2022/03/14 03:43:17;;;;;;;13.82;5.03;;;7.40;71.10;;;;;;10383947;28;20041;-56
2022/03/14 03:48:20;;;;;;;13.40;5.70;;;7.50;71.80;;;;;;10390274;28;20057;-56
2022/03/14 03:53:22;;;;;;;9.02;5.07;;;7.50;72.50;;;;;;10381017;28;20099;-58
2022/03/14 03:58:23;;;;;;;15.48;6.15;;;7.60;75.10;;;;;;10380639;28;20057;-56
2022/03/14 04:03:25;;;;;;;10.13;5.22;;;7.80;77.90;;;;;;10385704;28;20088;-56
2022/03/14 04:08:30;;;;;;;9.43;5.00;;;7.90;78.30;;;;;;10386110;28;20068;-57
2022/03/14 04:13:31;;;;;;;14.55;5.35;;;7.90;82.70;;;;;;10385844;28;20045;-57
2022/03/14 04:18:34;;;;;;;8.10;3.35;;;8.00;91.40;;;;;;10376286;28;20076;-56
2022/03/14 04:23:35;;;;;;;6.82;2.85;;;8.20;99.90;;;;;;10384656;28;20080;-56
2022/03/14 04:28:39;;;;;;;5.97;2.63;;;8.30;99.90;;;;;;10378259;28;20053;-56
2022/03/14 04:33:41;;;;;;;5.70;2.28;;;8.40;99.90;;;;;;10377151;28;20069;-56
2022/03/14 04:38:42;;;;;;;6.38;3.15;;;8.40;99.90;;;;;;10385061;28;20085;-56
2022/03/14 04:43:44;;;;;;;7.57;3.10;;;8.30;99.90;;;;;;10378471;28;20053;-57
2022/03/14 04:48:45;;;;;;;5.28;3.00;;;8.30;99.90;;;;;;10383936;28;20491;-57
2022/03/14 04:53:47;;;;;;;6.13;2.70;;;8.30;99.90;;;;;;10382514;28;20046;-57
2022/03/14 04:58:49;;;;;;;5.90;3.63;;;8.20;99.90;;;;;;10382587;28;20077;-57
2022/03/14 05:03:52;;;;;;;6.20;2.90;;;8.10;99.90;;;;;;10379626;28;20041;-57
2022/03/14 05:08:54;;;;;;;6.18;2.75;;;8.10;99.90;;;;;;10378383;28;20530;-56
2022/03/14 05:13:56;;;;;;;5.93;2.95;;;8.00;99.90;;;;;;10383874;28;20103;-56
2022/03/14 05:18:57;;;;;;;7.93;3.05;;;8.00;99.90;;;;;;10381879;28;20053;-56
2022/03/14 05:23:59;;;;;;;8.48;3.75;;;8.00;99.90;;;;;;10381461;28;20529;-56
2022/03/14 05:29:01;;;;;;;9.02;3.17;;;7.90;99.90;;;;;;10384135;28;20506;-56
2022/03/14 05:34:03;;;;;;;5.57;2.78;;;7.90;99.90;;;;;;10380445;28;20064;-57
2022/03/14 05:39:05;;;;;;;6.30;3.00;;;7.90;99.90;;;;;;10381257;28;20539;-56
2022/03/14 05:44:06;;;;;;;6.72;2.80;;;7.80;99.90;;;;;;10379166;28;20065;-64
2022/03/14 05:49:08;;;;;;;8.23;3.40;;;7.80;99.90;;;;;;10379460;28;20875;-63
2022/03/14 05:54:10;;;;;;;8.32;3.55;;;7.90;99.90;;;;;;10381454;28;20488;-63
2022/03/14 05:59:11;;;;;;;12.55;4.60;;;7.90;99.90;;;;;;10383170;28;20103;-63
2022/03/14 06:04:13;;;;;;;10.02;4.43;;;7.90;99.90;;;;;;10381386;28;20056;-63
2022/03/14 06:09:15;;;;;;;12.80;4.32;;;7.90;99.90;;;;;;10378399;28;20056;-63
2022/03/14 06:14:17;;;;;;;11.95;4.20;;;8.00;99.90;;;;;;10380511;28;20046;-64
2022/03/14 06:19:19;;;;;;;8.30;2.92;;;7.90;99.90;;;;;;10380891;28;20085;-63
2022/03/14 06:24:20;;;;;;;10.68;2.90;;;7.90;99.90;;;;;;10382697;28;20057;-63
2022/03/14 06:29:22;;;;;;;4.63;2.88;;;7.90;99.90;;;;;;10395333;28;20107;-63
2022/03/14 06:34:24;;;;;;;5.82;2.97;;;8.00;99.90;;;;;;10373274;28;20082;-63
2022/03/14 06:39:25;;;;;;;6.13;2.30;;;8.00;99.90;;;;;;10384304;28;20065;-64
2022/03/14 06:44:28;;;;;;;6.10;2.42;;;7.90;99.90;;;;;;10383596;28;20069;-63
2022/03/14 06:49:30;;;;;;;8.90;2.45;;;8.00;99.90;;;;;;10387967;28;20139;-63
2022/03/14 06:54:32;;;;;;;7.97;2.83;;;8.00;99.90;;;;;;10387238;28;20049;-63
2022/03/14 06:59:34;;;;;;;14.27;2.88;;;8.00;99.90;;;;;;10387010;28;20213;-63
2022/03/14 07:04:36;;;;;;;4.95;1.85;;;8.00;99.90;;;;;;10331134;28;20077;-64
2022/03/14 07:09:38;;;;;;;6.40;2.53;;;8.10;99.90;;;;;;10376718;28;20467;-64
2022/03/14 07:14:40;;;;;;;6.80;3.25;;;8.20;99.90;;;;;;10382283;28;20084;-64
2022/03/14 07:19:45;;;;;;;5.93;1.90;;;8.20;99.90;;;;;;10385430;28;20261;-64
2022/03/14 07:24:47;;;;;;;4.65;2.45;;;8.30;99.90;;;;;;10386460;28;20095;-64
2022/03/14 07:29:49;;;;;;;3.63;1.77;;;8.30;99.90;;;;;;10387785;28;20045;-64
2022/03/14 07:34:50;;;;;;;3.13;1.02;;;8.30;99.90;;;;;;10386612;28;20077;-64
2022/03/14 07:39:52;;;;;;;0.95;0.60;;;8.30;99.90;;;;;;10386380;28;20045;-64
2022/03/14 07:44:54;;;;;;;2.13;0.80;;;8.30;99.90;;;;;;10383000;28;20081;-64
2022/03/14 07:49:55;;;;;;;3.20;1.00;;;8.30;99.90;;;;;;10388749;28;20045;-64
2022/03/14 07:54:57;;;;;;;1.40;1.00;;;8.30;99.90;;;;;;10384123;28;20050;-64
2022/03/14 07:59:59;;;;;;;0.98;0.50;;;8.30;99.90;;;;;;10381769;28;20053;-64
2022/03/14 08:05:01;;;;;;;2.55;0.73;;;8.30;99.90;;;;;;10381152;28;20091;-64
2022/03/14 08:10:09;;;;;;;1.77;0.50;;;8.20;99.90;;;;;;10379753;28;20060;-64
2022/03/14 08:15:11;;;;;;;3.42;0.60;;;8.20;99.90;;;;;;10386098;28;20126;-64
2022/03/14 08:20:13;;;;;;;1.42;0.60;;;8.20;99.90;;;;;;10387410;28;20454;-64
2022/03/14 08:25:15;;;;;;;1.80;0.60;;;8.30;99.90;;;;;;10382881;28;20415;-64
2022/03/14 08:30:17;;;;;;;1.00;0.60;;;8.30;99.90;;;;;;10385883;28;20057;-61
2022/03/14 08:35:20;;;;;;;6.22;0.85;;;8.30;99.90;;;;;;10379810;28;20069;-64
2022/03/14 08:40:24;;;;;;;2.83;0.70;;;8.40;99.90;;;;;;10340707;28;20045;-64
2022/03/14 08:45:26;;;;;;;5.25;0.82;;;8.40;99.90;;;;;;10368337;28;20046;-64
2022/03/14 08:50:28;;;;;;;4.25;0.88;;;8.50;99.90;;;;;;10385525;28;20091;-64
2022/03/14 08:55:30;;;;;;;3.63;1.00;;;8.70;99.90;;;;;;10384545;28;20085;-64
2022/03/14 09:00:32;;;;;;;6.10;0.68;;;8.80;99.90;;;;;;10380842;28;20049;-64
2022/03/14 09:05:35;;;;;;;2.53;0.75;;;8.90;99.90;;;;;;10380954;28;20064;-64
2022/03/14 09:10:38;;;;;;;5.88;0.88;;;9.00;99.90;;;;;;10383398;28;20053;-64
2022/03/14 09:15:40;;;;;;;4.25;0.80;;;9.10;99.90;;;;;;10385492;28;20107;-63
2022/03/14 09:20:43;;;;;;;7.03;0.80;;;9.30;99.90;;;;;;10384856;28;20037;-64
2022/03/14 09:25:44;;;;;;;4.55;0.85;;;9.20;99.90;;;;;;10379733;28;20099;-63
2022/03/14 09:30:47;;;;;;;3.05;1.25;;;9.30;99.90;;;;;;10382568;28;20132;-64
2022/03/14 09:35:50;;;;;;;3.78;0.98;;;9.40;99.90;;;;;;10381998;28;20080;-64
2022/03/14 09:40:53;;;;;;;4.10;0.68;;;9.50;99.90;;;;;;10374386;28;20060;-64
2022/03/14 09:45:55;;;;;;;3.13;1.13;;;9.70;99.90;;;;;;10380403;28;20107;-63
2022/03/14 09:50:58;;;;;;;3.08;0.60;;;9.90;99.90;;;;;;10384202;28;20056;-63
2022/03/14 09:56:00;;;;;;;3.50;0.50;;;10.20;99.90;;;;;;10381486;28;20061;-62
2022/03/14 10:01:03;;;;;;;6.65;0.98;;;10.50;99.90;;;;;;10390628;28;20191;-62
2022/03/14 10:06:06;;;;;;;2.95;0.60;;;10.60;99.40;;;;;;10388873;28;20058;-57
2022/03/14 10:11:08;;;;;;;1.38;0.50;;;10.60;93.90;;;;;;10386561;28;20065;-58
2022/03/14 10:16:15;;;;;;;3.80;0.40;;;10.70;94.10;;;;;;10388867;28;20395;-63
2022/03/14 10:21:35;;;;;;;2.53;0.60;;;10.70;94.40;;;;;;10381081;28;20065;-62
2022/03/14 10:26:44;;;;;;;1.33;0.32;;;10.80;93.80;;;;;;10388036;28;20049;-62
2022/03/14 10:31:57;;;;;;;2.38;0.50;;;10.90;93.50;;;;;;10384779;28;20119;-62
2022/03/14 10:36:59;;;;;;;2.42;0.40;;;10.90;92.10;;;;;;10386507;28;20042;-62
2022/03/14 10:42:07;;;;;;;3.67;0.28;;;11.10;90.80;;;;;;10387630;28;20053;-62
2022/03/14 10:47:25;;;;;;;1.08;0.20;;;11.30;86.80;;;;;;10388963;28;20104;-62
2022/03/14 10:52:27;;;;;;;0.70;0.30;;;11.50;85.60;;;;;;10387573;28;20577;-62
2022/03/14 10:57:31;;;;;;;0.82;0.20;;;11.80;84.00;;;;;;10374065;28;20828;-62
2022/03/14 11:02:33;;;;;;;3.53;0.45;;;11.80;80.00;;;;;;10385519;28;20049;-62
2022/03/14 11:07:35;;;;;;;4.05;0.20;;;11.70;80.10;;;;;;10375932;28;20365;-62
2022/03/14 11:12:37;;;;;;;1.00;0.20;;;11.90;80.60;;;;;;10384584;28;20053;-62
2022/03/14 11:17:39;;;;;;;2.45;0.25;;;12.10;77.30;;;;;;10385225;28;20561;-62
2022/03/14 11:23:01;;;;;;;0.95;0.30;;;12.50;76.80;;;;;;10386407;28;20160;-62
2022/03/14 11:28:03;;;;;;;3.85;0.30;;;13.40;73.30;;;;;;10389880;28;20052;-62
2022/03/14 11:33:05;;;;;;;3.35;0.30;;;13.40;70.60;;;;;;10379567;28;20128;-62
2022/03/14 11:38:08;;;;;;;2.20;0.30;;;13.30;71.50;;;;;;10388087;28;20079;-60
2022/03/14 11:43:11;;;;;;;0.57;0.30;;;12.80;73.40;;;;;;10384395;28;20056;-60
2022/03/14 11:48:13;;;;;;;6.93;0.28;;;12.40;75.20;;;;;;10388330;28;20098;-61
2022/03/14 11:53:24;;;;;;;3.70;0.38;;;12.10;76.60;;;;;;10382873;28;20597;-61
2022/03/14 11:58:40;;;;;;;2.70;0.30;;;12.10;78.00;;;;;;10380644;28;20057;-61
2022/03/14 12:03:45;;;;;;;1.45;0.20;;;12.40;75.30;;;;;;10383209;28;20057;-61
2022/03/14 12:08:50;;;;;;;5.10;0.28;;;12.70;75.90;;;;;;10378683;28;20073;-62
2022/03/14 12:13:52;;;;;;;0.43;0.10;;;12.40;74.70;;;;;;10373699;28;20053;-62
2022/03/14 12:18:57;;;;;;;2.83;0.20;;;12.20;72.90;;;;;;10372034;28;20033;-62
2022/03/14 12:23:59;;;;;;;0.20;0.10;;;12.80;71.70;;;;;;10377687;28;20061;-60
2022/03/14 12:29:33;;;;;;;2.75;0.20;;;13.40;70.40;;;;;;10372613;28;20057;-61
2022/03/14 12:34:35;;;;;;;2.72;0.30;;;14.60;66.90;;;;;;10369085;28;20306;-62
2022/03/14 12:39:38;;;;;;;3.85;0.47;;;14.40;66.40;;;;;;10373091;28;20087;-61
2022/03/14 12:44:40;;;;;;;3.50;0.50;;;13.40;69.80;;;;;;10378284;28;20049;-61
2022/03/14 12:49:42;;;;;;;1.27;0.65;;;12.90;70.70;;;;;;10379700;28;20054;-61
2022/03/14 12:54:45;;;;;;;0.95;0.45;;;12.60;73.20;;;;;;10384831;28;20080;-62
2022/03/14 12:59:48;;;;;;;1.50;0.40;;;12.40;74.30;;;;;;10381290;28;20048;-61
2022/03/14 13:05:02;;;;;;;2.33;0.25;;;12.20;74.20;;;;;;10369947;28;20411;-61
2022/03/14 13:10:04;;;;;;;0.43;0.10;;;12.20;73.70;;;;;;10382007;28;20045;-60
2022/03/14 13:15:08;;;;;;;2.03;0.10;;;12.10;69.50;;;;;;10373478;28;20056;-60
2022/03/14 13:20:23;;;;;;;3.08;0.60;;;11.90;70.30;;;;;;10380227;28;20045;-60
2022/03/14 13:25:35;;;;;;;0.70;0.22;;;11.80;76.10;;;;;;10378381;28;20103;-61
2022/03/14 13:30:42;;;;;;;0.80;0.20;;;11.70;76.90;;;;;;10382451;28;20107;-61
2022/03/14 13:35:44;;;;;;;2.05;0.30;;;11.70;76.80;;;;;;10388233;28;20096;-61
2022/03/14 13:40:46;;;;;;;1.35;0.30;;;11.90;76.70;;;;;;10387869;28;20049;-61
2022/03/14 13:45:48;;;;;;;4.00;0.35;;;12.40;74.70;;;;;;10383160;28;20049;-61
2022/03/14 13:50:50;;;;;;;2.45;0.35;;;12.40;73.00;;;;;;10388522;28;20133;-58
2022/03/14 13:55:56;;;;;;;0.47;0.20;;;13.00;71.40;;;;;;10388638;28;20136;-59
2022/03/14 14:00:58;;;;;;;3.03;0.30;;;13.70;66.50;;;;;;10378207;28;20053;-61
2022/03/14 14:06:14;;;;;;;2.13;0.15;;;13.80;63.90;;;;;;10380273;28;20064;-61
2022/03/14 14:11:24;;;;;;;0.57;0.10;;;13.60;62.60;;;;;;10387996;28;20137;-61
2022/03/14 14:16:25;;;;;;;0.82;0.20;;;13.20;62.10;;;;;;10381009;28;20092;-61
2022/03/14 14:21:27;;;;;;;2.85;0.30;;;13.20;63.20;;;;;;10378029;28;20049;-61
2022/03/14 14:26:33;;;;;;;0.98;0.20;;;13.20;63.90;;;;;;10391579;28;20073;-61
2022/03/14 14:31:34;;;;;;;1.60;0.20;;;12.90;63.10;;;;;;10387949;28;20119;-61
2022/03/14 14:36:37;;;;;;;0.30;0.15;;;12.70;65.00;;;;;;10383975;28;20057;-61
2022/03/14 14:41:38;;;;;;;1.23;0.20;;;12.60;65.00;;;;;;10377179;28;20455;-61
2022/03/14 14:46:40;;;;;;;1.48;0.30;;;12.50;66.80;;;;;;10386213;28;20045;-60
2022/03/14 14:51:42;;;;;;;1.75;0.20;;;12.40;67.80;;;;;;10383895;28;20132;-60
2022/03/14 14:56:44;;;;;;;0.63;0.20;;;12.70;66.90;;;;;;10379550;28;20045;-61
2022/03/14 15:01:47;;;;;;;1.48;0.30;;;12.70;67.40;;;;;;10378345;28;20140;-60
2022/03/14 15:06:49;;;;;;;0.80;0.17;;;12.70;66.90;;;;;;10375998;28;20057;-61
2022/03/14 15:11:51;;;;;;;0.25;0.10;;;12.60;66.70;;;;;;10382575;28;20065;-61
2022/03/14 15:16:53;;;;;;;0.68;0.30;;;12.70;66.60;;;;;;10386731;28;20542;-60
2022/03/14 15:21:55;;;;;;;0.40;0.40;;;12.80;67.50;;;;;;10381475;28;20083;-61
2022/03/14 15:26:57;;;;;;;0.50;0.20;;;12.70;66.70;;;;;;10385477;28;20132;-61
2022/03/14 15:31:58;;;;;;;1.67;0.20;;;13.00;66.30;;;;;;10382174;28;20091;-61
2022/03/14 15:37:00;;;;;;;1.70;0.20;;;12.90;65.40;;;;;;10376826;28;20050;-61
2022/03/14 15:42:02;;;;;;;0.47;0.20;;;13.00;65.70;;;;;;10377782;28;20046;-63
2022/03/14 15:47:04;;;;;;;2.22;0.20;;;13.30;64.00;;;;;;10376276;28;20103;-62
2022/03/14 15:52:06;;;;;;;2.10;0.20;;;13.20;63.70;;;;;;10381502;28;23561;-61
2022/03/14 15:57:09;;;;;;;2.28;0.40;;;13.00;63.90;;;;;;10386363;28;20049;-60
2022/03/14 16:02:11;;;;;;;1.67;0.40;;;13.00;65.70;;;;;;10272426;28;20037;-61
2022/03/14 16:07:13;;;;;;;0.63;0.20;;;13.10;66.40;;;;;;10385837;28;20053;-61
2022/03/14 16:12:15;;;;;;;1.35;0.20;;;12.80;64.80;;;;;;10384910;28;20080;-62
2022/03/14 16:17:17;;;;;;;1.58;0.20;;;12.80;66.90;;;;;;10377014;28;20128;-62
2022/03/14 16:22:19;;;;;;;0.40;0.10;;;12.80;67.20;;;;;;10375136;28;20111;-62
2022/03/14 16:27:21;;;;;;;1.02;0.22;;;12.60;66.40;;;;;;10377244;28;20168;-62
2022/03/14 16:32:23;;;;;;;1.48;0.20;;;12.70;66.80;;;;;;10379565;28;20046;-62
2022/03/14 16:37:25;;;;;;;1.95;0.50;;;12.90;67.30;;;;;;10380510;28;20041;-62
2022/03/14 16:42:28;;;;;;;6.20;0.70;;;12.90;68.00;;;;;;10383881;28;20050;-63
2022/03/14 16:47:29;;;;;;;1.15;0.40;;;12.80;67.80;;;;;;10382517;28;20041;-62
2022/03/14 16:52:32;;;;;;;1.88;0.65;;;12.60;67.60;;;;;;10380651;28;20107;-62
2022/03/14 16:57:34;;;;;;;1.10;0.22;;;12.40;67.60;;;;;;10381077;28;20057;-62
2022/03/14 17:02:36;;;;;;;1.92;0.30;;;12.20;68.30;;;;;;10379775;28;21163;-63
2022/03/14 17:07:39;;;;;;;2.55;0.25;;;12.00;68.70;;;;;;10380420;28;20072;-63
2022/03/14 17:12:40;;;;;;;3.55;0.40;;;11.80;68.80;;;;;;10378590;28;20103;-63
2022/03/14 17:17:42;;;;;;;2.55;0.30;;;11.60;70.70;;;;;;10382530;28;20061;-62
2022/03/14 17:22:44;;;;;;;3.15;0.50;;;11.30;71.70;;;;;;10377247;28;20053;-62
2022/03/14 17:27:46;;;;;;;2.63;1.00;;;11.10;71.90;;;;;;10383984;28;20152;-62
2022/03/14 17:32:47;;;;;;;4.45;0.80;;;10.90;72.50;;;;;;10381645;28;20123;-62
2022/03/14 17:37:49;;;;;;;5.32;1.05;;;10.70;72.80;;;;;;10384372;28;20093;-63
2022/03/14 17:42:52;;;;;;;4.35;1.38;;;10.50;73.60;;;;;;10366143;28;20049;-62
2022/03/14 17:47:54;;;;;;;12.45;3.75;;;10.30;75.60;;;;;;10382632;28;20049;-63
2022/03/14 17:52:55;;;;;;;17.45;4.78;;;10.10;78.70;;;;;;10378372;28;20092;-59
2022/03/14 17:57:57;;;;;;;16.98;2.35;;;9.90;80.60;;;;;;10379972;28;20053;-59
2022/03/14 18:03:05;;;;;;;4.45;1.13;;;9.80;86.20;;;;;;10372052;28;20045;-59
2022/03/14 18:08:09;;;;;;;1.25;0.80;;;9.50;83.50;;;;;;10379175;28;20058;-60
2022/03/14 18:13:11;;;;;;;3.35;0.95;;;9.40;85.60;;;;;;10380720;28;20515;-59
2022/03/14 18:18:12;;;;;;;9.80;2.13;;;9.20;88.50;;;;;;10379749;28;20068;-59
2022/03/14 18:23:34;;;;;;;21.17;7.47;;;8.90;90.60;;;;;;10386444;28;20055;-59
2022/03/14 18:28:36;;;;;;;8.40;3.20;;;8.70;92.50;;;;;;10374234;28;20057;-59
2022/03/14 18:33:56;;;;;;;7.82;1.90;;;8.40;92.50;;;;;;10385124;28;20064;-58
2022/03/14 18:38:59;;;;;;;11.57;4.57;;;8.30;92.50;;;;;;10384930;28;20099;-59
2022/03/14 18:44:22;;;;;;;7.88;3.70;;;8.00;94.60;;;;;;10387992;28;20124;-59
2022/03/14 18:49:24;;;;;;;9.73;3.03;;;7.90;95.80;;;;;;10387735;28;20077;-58
2022/03/14 18:54:26;;;;;;;3.67;0.70;;;7.70;97.30;;;;;;10386708;28;20050;-59
2022/03/14 18:59:27;;;;;;;8.77;4.72;;;7.60;97.50;;;;;;10386109;28;20464;-59
2022/03/14 19:04:31;;;;;;;6.30;2.47;;;7.40;98.80;;;;;;10388326;28;20056;-59
2022/03/14 19:09:33;;;;;;;8.15;3.00;;;7.30;99.90;;;;;;10386176;28;20041;-59
2022/03/14 19:14:41;;;;;;;6.43;2.58;;;7.10;99.90;;;;;;10383244;28;20038;-59
2022/03/14 19:19:43;;;;;;;7.70;3.10;;;7.00;99.90;;;;;;10383746;28;20108;-60
2022/03/14 19:24:44;;;;;;;5.55;1.33;;;6.80;99.90;;;;;;10391682;28;20084;-59
2022/03/14 19:29:47;;;;;;;2.75;1.27;;;6.70;99.90;;;;;;10386025;28;20122;-60
2022/03/14 19:34:51;;;;;;;3.75;1.23;;;6.60;99.90;;;;;;10385554;28;20077;-59
2022/03/14 19:39:53;;;;;;;3.58;1.35;;;6.50;99.90;;;;;;10380030;28;20120;-58
2022/03/14 19:44:55;;;;;;;5.25;1.65;;;6.40;99.90;;;;;;10379616;28;20049;-59
2022/03/14 19:49:56;;;;;;;6.85;2.65;;;6.30;99.90;;;;;;10377665;28;20462;-59
2022/03/14 19:54:58;;;;;;;9.98;2.35;;;6.10;99.90;;;;;;10383814;28;20135;-59
2022/03/14 20:00:00;;;;;;;8.30;2.58;;;5.90;99.90;;;;;;10382268;28;20120;-59
2022/03/14 20:05:02;;;;;;;4.10;2.05;;;5.80;99.90;;;;;;10381633;28;20088;-58
2022/03/14 20:10:04;;;;;;;7.22;2.40;;;5.70;99.90;;;;;;10375177;28;20073;-58
2022/03/14 20:15:13;;;;;;;4.15;1.98;;;5.60;99.90;;;;;;10382054;28;20103;-58
2022/03/14 20:20:16;;;;;;;8.07;2.53;;;5.60;99.90;;;;;;10377956;28;20053;-59
2022/03/14 20:25:19;;;;;;;10.18;3.28;;;5.50;99.90;;;;;;10376206;28;20064;-58
2022/03/14 20:30:21;;;;;;;7.25;2.47;;;5.50;99.90;;;;;;10376108;28;20637;-59
2022/03/14 20:35:23;;;;;;;13.60;4.88;;;5.40;99.90;;;;;;10377303;28;20050;-58
2022/03/14 20:40:25;;;;;;;21.00;7.57;;;5.20;99.90;;;;;;10375830;28;20096;-58
2022/03/14 20:45:27;;;;;;;13.57;6.75;;;5.20;99.90;;;;;;10380136;28;20056;-58
2022/03/14 20:50:29;;;;;;;16.13;6.57;;;5.10;99.90;;;;;;10382839;28;20518;-59
2022/03/14 20:55:30;;;;;;;15.32;5.85;;;5.00;99.90;;;;;;10385102;28;20073;-59
2022/03/14 21:00:32;;;;;;;13.75;5.60;;;5.00;99.90;;;;;;10373331;28;20638;-60
2022/03/14 21:05:36;;;;;;;8.82;4.07;;;5.00;99.90;;;;;;10376298;28;20045;-60
2022/03/14 21:10:38;;;;;;;8.73;3.92;;;5.00;99.90;;;;;;10375303;28;22592;-60
2022/03/14 21:15:40;;;;;;;9.60;3.72;;;5.00;99.90;;;;;;10379992;28;20049;-60
2022/03/14 21:20:42;;;;;;;4.85;2.38;;;4.90;99.90;;;;;;10379989;28;20111;-60
2022/03/14 21:25:45;;;;;;;7.97;2.80;;;4.80;99.90;;;;;;10373982;28;20050;-60
2022/03/14 21:30:50;;;;;;;6.43;2.35;;;4.70;99.90;;;;;;10379255;28;20113;-60
2022/03/14 21:35:52;;;;;;;6.07;2.50;;;4.70;99.90;;;;;;10381763;28;20056;-60
2022/03/14 21:40:54;;;;;;;11.85;2.92;;;4.70;99.90;;;;;;10381676;28;20396;-60
2022/03/14 21:45:56;;;;;;;5.47;2.70;;;4.60;99.90;;;;;;10381086;28;20567;-61
2022/03/14 21:50:58;;;;;;;8.52;2.58;;;4.60;99.90;;;;;;10384961;28;20045;-60
2022/03/14 21:56:01;;;;;;;3.92;1.95;;;4.60;99.90;;;;;;10391885;28;20064;-60
2022/03/14 22:01:04;;;;;;;10.95;3.28;;;4.50;99.90;;;;;;10384945;28;20081;-61
2022/03/14 22:06:06;;;;;;;4.70;1.75;;;4.50;99.90;;;;;;10386878;28;20037;-61
2022/03/14 22:11:08;;;;;;;4.28;1.70;;;4.50;99.90;;;;;;10389413;28;20080;-61
2022/03/14 22:16:10;;;;;;;6.22;1.50;;;4.50;99.90;;;;;;10385856;28;20075;-61
2022/03/14 22:21:12;;;;;;;5.47;1.35;;;4.40;99.90;;;;;;10390231;28;20132;-62
2022/03/14 22:26:14;;;;;;;4.03;1.80;;;4.40;99.90;;;;;;10380882;28;20053;-61
2022/03/14 22:31:17;;;;;;;5.22;1.23;;;4.40;99.90;;;;;;10377006;28;20053;-61
2022/03/14 22:36:19;;;;;;;4.55;1.13;;;4.40;99.90;;;;;;10388317;28;20053;-61
2022/03/14 22:41:22;;;;;;;6.35;1.13;;;4.30;99.90;;;;;;10389543;28;20092;-61
2022/03/14 22:46:23;;;;;;;6.68;1.30;;;4.30;99.90;;;;;;10390794;28;20103;-61
2022/03/14 22:51:28;;;;;;;5.20;1.02;;;4.30;99.90;;;;;;10389246;28;20053;-61
2022/03/14 22:56:31;;;;;;;3.22;1.35;;;4.20;99.90;;;;;;10388916;28;20045;-61
2022/03/14 23:01:32;;;;;;;5.65;1.50;;;4.20;99.90;;;;;;10384944;28;20076;-61
2022/03/14 23:06:35;;;;;;;3.38;1.48;;;4.10;99.90;;;;;;10377754;28;20107;-61
2022/03/14 23:11:37;;;;;;;2.38;1.38;;;4.10;99.90;;;;;;10387465;28;20076;-61
2022/03/14 23:16:40;;;;;;;3.00;1.20;;;4.10;99.90;;;;;;10390343;28;20761;-61
2022/03/14 23:21:43;;;;;;;3.20;1.35;;;4.00;99.90;;;;;;10389566;28;20048;-61
2022/03/14 23:26:49;;;;;;;4.85;1.50;;;4.00;99.90;;;;;;10387465;28;20084;-61
2022/03/14 23:31:52;;;;;;;1.92;1.05;;;4.00;99.90;;;;;;10382761;28;20577;-61
2022/03/14 23:36:55;;;;;;;4.55;1.17;;;4.00;99.90;;;;;;10385202;28;20052;-61
2022/03/14 23:41:57;;;;;;;3.35;1.25;;;4.10;99.90;;;;;;10386669;28;20557;-60
2022/03/14 23:46:59;;;;;;;6.93;1.27;;;4.00;99.90;;;;;;10378893;28;20107;-60
2022/03/14 23:52:00;;;;;;;2.60;0.80;;;4.00;99.90;;;;;;10386444;28;20049;-61
2022/03/14 23:57:02;;;;;;;3.33;1.25;;;4.00;99.90;;;;;;10384964;28;20072;-61
